sensor_id;sensor_type;location;lat;lon;timestamp;P1;durP1;ratioP1;P2;durP2;ratioP2
30472;SDS011;17263;48.160;11.452;2023-05-07T00:00:21;8.67;;;7.77;;
30472;SDS011;17263;48.160;11.452;2023-05-07T00:02:47;8.30;;;7.17;;
30472;SDS011;17263;48.160;11.452;2023-05-07T00:05:13;8.17;;;7.27;;
30472;SDS011;17263;48.160;11.452;2023-05-07T00:07:39;7.33;;;6.63;;
30472;SDS011;17263;48.160;11.452;2023-05-07T00:10:06;10.97;;;7.80;;
30472;SDS011;17263;48.160;11.452;2023-05-07T00:12:32;8.77;;;7.87;;
30472;SDS011;17263;48.160;11.452;2023-05-07T00:15:02;13.43;;;8.23;;
30472;SDS011;17263;48.160;11.452;2023-05-07T00:17:29;10.73;;;7.87;;
30472;SDS011;17263;48.160;11.452;2023-05-07T00:19:55;9.73;;;8.73;;
30472;SDS011;17263;48.160;11.452;2023-05-07T00:22:21;9.17;;;8.20;;
30472;SDS011;17263;48.160;11.452;2023-05-07T00:24:47;8.07;;;7.27;;
30472;SDS011;17263;48.160;11.452;2023-05-07T00:27:13;8.70;;;7.37;;
30472;SDS011;17263;48.160;11.452;2023-05-07T00:29:39;8.77;;;7.13;;
30472;SDS011;17263;48.160;11.452;2023-05-07T00:32:05;11.97;;;8.37;;
30472;SDS011;17263;48.160;11.452;2023-05-07T00:34:31;8.73;;;7.50;;
30472;SDS011;17263;48.160;11.452;2023-05-07T00:36:57;7.37;;;6.67;;
30472;SDS011;17263;48.160;11.452;2023-05-07T00:39:23;8.37;;;7.40;;
30472;SDS011;17263;48.160;11.452;2023-05-07T00:41:49;8.73;;;7.47;;
30472;SDS011;17263;48.160;11.452;2023-05-07T00:44:16;10.63;;;7.00;;
30472;SDS011;17263;48.160;11.452;2023-05-07T00:46:43;8.90;;;7.63;;
30472;SDS011;17263;48.160;11.452;2023-05-07T00:49:10;8.90;;;7.70;;
30472;SDS011;17263;48.160;11.452;2023-05-07T00:51:36;9.80;;;8.30;;
30472;SDS011;17263;48.160;11.452;2023-05-07T00:54:03;8.50;;;7.50;;
30472;SDS011;17263;48.160;11.452;2023-05-07T00:56:29;8.60;;;7.40;;
30472;SDS011;17263;48.160;11.452;2023-05-07T00:58:55;8.90;;;7.80;;
30472;SDS011;17263;48.160;11.452;2023-05-07T01:01:22;8.93;;;7.60;;
30472;SDS011;17263;48.160;11.452;2023-05-07T01:03:48;9.97;;;7.63;;
30472;SDS011;17263;48.160;11.452;2023-05-07T01:06:14;8.77;;;7.47;;
30472;SDS011;17263;48.160;11.452;2023-05-07T01:08:42;8.57;;;7.23;;
30472;SDS011;17263;48.160;11.452;2023-05-07T01:11:08;7.63;;;6.90;;
30472;SDS011;17263;48.160;11.452;2023-05-07T01:13:36;9.63;;;7.10;;
30472;SDS011;17263;48.160;11.452;2023-05-07T01:16:03;8.40;;;7.50;;
30472;SDS011;17263;48.160;11.452;2023-05-07T01:18:30;9.60;;;7.57;;
30472;SDS011;17263;48.160;11.452;2023-05-07T01:20:57;11.27;;;7.50;;
30472;SDS011;17263;48.160;11.452;2023-05-07T01:23:25;7.70;;;6.80;;
30472;SDS011;17263;48.160;11.452;2023-05-07T01:25:52;7.10;;;6.40;;
30472;SDS011;17263;48.160;11.452;2023-05-07T01:28:18;7.57;;;6.73;;
30472;SDS011;17263;48.160;11.452;2023-05-07T01:30:46;7.00;;;6.30;;
30472;SDS011;17263;48.160;11.452;2023-05-07T01:33:15;9.40;;;6.70;;
30472;SDS011;17263;48.160;11.452;2023-05-07T01:35:47;9.47;;;6.17;;
30472;SDS011;17263;48.160;11.452;2023-05-07T01:38:17;8.37;;;6.60;;
30472;SDS011;17263;48.160;11.452;2023-05-07T01:40:44;10.37;;;7.03;;
30472;SDS011;17263;48.160;11.452;2023-05-07T01:43:11;7.80;;;7.00;;
30472;SDS011;17263;48.160;11.452;2023-05-07T01:45:37;9.43;;;6.50;;
30472;SDS011;17263;48.160;11.452;2023-05-07T01:48:06;7.83;;;6.10;;
30472;SDS011;17263;48.160;11.452;2023-05-07T01:50:33;7.13;;;6.40;;
30472;SDS011;17263;48.160;11.452;2023-05-07T01:53:00;7.83;;;6.90;;
30472;SDS011;17263;48.160;11.452;2023-05-07T01:55:27;9.03;;;7.30;;
30472;SDS011;17263;48.160;11.452;2023-05-07T01:57:53;8.30;;;6.87;;
30472;SDS011;17263;48.160;11.452;2023-05-07T02:00:19;7.90;;;6.73;;
30472;SDS011;17263;48.160;11.452;2023-05-07T02:02:46;7.30;;;6.60;;
30472;SDS011;17263;48.160;11.452;2023-05-07T02:05:12;7.40;;;6.60;;
30472;SDS011;17263;48.160;11.452;2023-05-07T02:07:38;7.97;;;6.63;;
30472;SDS011;17263;48.160;11.452;2023-05-07T02:10:04;7.10;;;6.50;;
30472;SDS011;17263;48.160;11.452;2023-05-07T02:12:30;7.73;;;6.93;;
30472;SDS011;17263;48.160;11.452;2023-05-07T02:14:56;8.00;;;7.07;;
30472;SDS011;17263;48.160;11.452;2023-05-07T02:17:22;10.00;;;7.67;;
30472;SDS011;17263;48.160;11.452;2023-05-07T02:19:48;8.20;;;7.07;;
30472;SDS011;17263;48.160;11.452;2023-05-07T02:22:15;9.90;;;7.40;;
30472;SDS011;17263;48.160;11.452;2023-05-07T02:24:41;8.07;;;7.27;;
30472;SDS011;17263;48.160;11.452;2023-05-07T02:27:07;10.30;;;8.23;;
30472;SDS011;17263;48.160;11.452;2023-05-07T02:29:33;8.90;;;7.73;;
30472;SDS011;17263;48.160;11.452;2023-05-07T02:31:59;9.23;;;8.27;;
30472;SDS011;17263;48.160;11.452;2023-05-07T02:34:25;12.33;;;8.33;;
30472;SDS011;17263;48.160;11.452;2023-05-07T02:36:52;9.23;;;7.57;;
30472;SDS011;17263;48.160;11.452;2023-05-07T02:39:18;9.27;;;8.37;;
30472;SDS011;17263;48.160;11.452;2023-05-07T02:41:44;10.00;;;8.90;;
30472;SDS011;17263;48.160;11.452;2023-05-07T02:44:10;12.07;;;8.10;;
30472;SDS011;17263;48.160;11.452;2023-05-07T02:46:36;9.33;;;7.63;;
30472;SDS011;17263;48.160;11.452;2023-05-07T02:49:02;10.73;;;7.93;;
30472;SDS011;17263;48.160;11.452;2023-05-07T02:51:29;8.53;;;7.67;;
30472;SDS011;17263;48.160;11.452;2023-05-07T02:53:56;8.50;;;7.70;;
30472;SDS011;17263;48.160;11.452;2023-05-07T02:56:22;9.07;;;8.17;;
30472;SDS011;17263;48.160;11.452;2023-05-07T02:58:48;8.57;;;7.67;;
30472;SDS011;17263;48.160;11.452;2023-05-07T03:01:14;8.03;;;7.03;;
30472;SDS011;17263;48.160;11.452;2023-05-07T03:03:40;8.60;;;7.57;;
30472;SDS011;17263;48.160;11.452;2023-05-07T03:06:06;10.57;;;7.93;;
30472;SDS011;17263;48.160;11.452;2023-05-07T03:08:32;9.73;;;7.93;;
30472;SDS011;17263;48.160;11.452;2023-05-07T03:10:58;9.27;;;8.13;;
30472;SDS011;17263;48.160;11.452;2023-05-07T03:13:24;9.07;;;7.93;;
30472;SDS011;17263;48.160;11.452;2023-05-07T03:15:50;9.23;;;7.97;;
30472;SDS011;17263;48.160;11.452;2023-05-07T03:18:16;8.57;;;7.77;;
30472;SDS011;17263;48.160;11.452;2023-05-07T03:20:42;10.27;;;7.77;;
30472;SDS011;17263;48.160;11.452;2023-05-07T03:23:08;9.93;;;8.10;;
30472;SDS011;17263;48.160;11.452;2023-05-07T03:25:34;8.80;;;7.63;;
30472;SDS011;17263;48.160;11.452;2023-05-07T03:28:01;12.60;;;7.43;;
30472;SDS011;17263;48.160;11.452;2023-05-07T03:30:27;8.90;;;8.07;;
30472;SDS011;17263;48.160;11.452;2023-05-07T03:32:53;10.90;;;7.73;;
30472;SDS011;17263;48.160;11.452;2023-05-07T03:35:19;9.30;;;8.30;;
30472;SDS011;17263;48.160;11.452;2023-05-07T03:37:45;9.20;;;8.03;;
30472;SDS011;17263;48.160;11.452;2023-05-07T03:40:11;9.73;;;8.77;;
30472;SDS011;17263;48.160;11.452;2023-05-07T03:42:37;9.07;;;7.43;;
30472;SDS011;17263;48.160;11.452;2023-05-07T03:45:03;8.90;;;7.73;;
30472;SDS011;17263;48.160;11.452;2023-05-07T03:47:30;10.43;;;8.80;;
30472;SDS011;17263;48.160;11.452;2023-05-07T03:49:56;8.87;;;8.03;;
30472;SDS011;17263;48.160;11.452;2023-05-07T03:52:22;9.20;;;8.30;;
30472;SDS011;17263;48.160;11.452;2023-05-07T03:54:52;11.07;;;8.63;;
30472;SDS011;17263;48.160;11.452;2023-05-07T03:57:18;9.93;;;7.53;;
30472;SDS011;17263;48.160;11.452;2023-05-07T03:59:45;9.40;;;8.50;;
30472;SDS011;17263;48.160;11.452;2023-05-07T04:02:11;10.47;;;8.60;;
30472;SDS011;17263;48.160;11.452;2023-05-07T04:04:37;8.40;;;7.50;;
30472;SDS011;17263;48.160;11.452;2023-05-07T04:07:03;8.17;;;7.37;;
30472;SDS011;17263;48.160;11.452;2023-05-07T04:09:29;8.03;;;7.13;;
30472;SDS011;17263;48.160;11.452;2023-05-07T04:11:55;8.67;;;7.80;;
30472;SDS011;17263;48.160;11.452;2023-05-07T04:14:21;9.23;;;7.73;;
30472;SDS011;17263;48.160;11.452;2023-05-07T04:16:48;9.37;;;7.70;;
30472;SDS011;17263;48.160;11.452;2023-05-07T04:19:14;9.67;;;7.70;;
30472;SDS011;17263;48.160;11.452;2023-05-07T04:21:40;8.17;;;7.33;;
30472;SDS011;17263;48.160;11.452;2023-05-07T04:24:06;8.00;;;7.27;;
30472;SDS011;17263;48.160;11.452;2023-05-07T04:26:32;11.03;;;7.60;;
30472;SDS011;17263;48.160;11.452;2023-05-07T04:28:59;7.97;;;7.13;;
30472;SDS011;17263;48.160;11.452;2023-05-07T04:31:25;9.80;;;7.80;;
30472;SDS011;17263;48.160;11.452;2023-05-07T04:33:51;8.73;;;7.83;;
30472;SDS011;17263;48.160;11.452;2023-05-07T04:36:17;7.63;;;6.80;;
30472;SDS011;17263;48.160;11.452;2023-05-07T04:38:43;7.00;;;6.30;;
30472;SDS011;17263;48.160;11.452;2023-05-07T04:41:09;10.73;;;6.73;;
30472;SDS011;17263;48.160;11.452;2023-05-07T04:43:35;7.70;;;6.37;;
30472;SDS011;17263;48.160;11.452;2023-05-07T04:46:01;7.23;;;6.30;;
30472;SDS011;17263;48.160;11.452;2023-05-07T04:48:27;6.83;;;6.20;;
30472;SDS011;17263;48.160;11.452;2023-05-07T04:50:54;5.50;;;5.00;;
30472;SDS011;17263;48.160;11.452;2023-05-07T04:53:20;5.67;;;5.13;;
30472;SDS011;17263;48.160;11.452;2023-05-07T04:55:47;5.47;;;4.43;;
30472;SDS011;17263;48.160;11.452;2023-05-07T04:58:13;5.00;;;4.60;;
30472;SDS011;17263;48.160;11.452;2023-05-07T05:00:39;5.57;;;4.50;;
30472;SDS011;17263;48.160;11.452;2023-05-07T05:03:08;8.57;;;4.90;;
30472;SDS011;17263;48.160;11.452;2023-05-07T05:05:34;6.17;;;4.20;;
30472;SDS011;17263;48.160;11.452;2023-05-07T05:08:00;5.60;;;4.60;;
30472;SDS011;17263;48.160;11.452;2023-05-07T05:10:26;6.00;;;4.37;;
30472;SDS011;17263;48.160;11.452;2023-05-07T05:12:52;5.37;;;4.20;;
30472;SDS011;17263;48.160;11.452;2023-05-07T05:15:18;4.93;;;4.00;;
30472;SDS011;17263;48.160;11.452;2023-05-07T05:17:44;7.37;;;4.20;;
30472;SDS011;17263;48.160;11.452;2023-05-07T05:20:10;4.07;;;3.63;;
30472;SDS011;17263;48.160;11.452;2023-05-07T05:22:37;5.23;;;4.20;;
30472;SDS011;17263;48.160;11.452;2023-05-07T05:25:03;6.03;;;4.20;;
30472;SDS011;17263;48.160;11.452;2023-05-07T05:27:29;6.00;;;3.97;;
30472;SDS011;17263;48.160;11.452;2023-05-07T05:29:55;5.30;;;4.13;;
30472;SDS011;17263;48.160;11.452;2023-05-07T05:32:21;7.40;;;4.20;;
30472;SDS011;17263;48.160;11.452;2023-05-07T05:34:47;4.77;;;4.27;;
30472;SDS011;17263;48.160;11.452;2023-05-07T05:37:13;5.23;;;4.23;;
30472;SDS011;17263;48.160;11.452;2023-05-07T05:39:39;5.17;;;3.97;;
30472;SDS011;17263;48.160;11.452;2023-05-07T05:42:05;5.57;;;4.50;;
30472;SDS011;17263;48.160;11.452;2023-05-07T05:44:31;5.77;;;4.53;;
30472;SDS011;17263;48.160;11.452;2023-05-07T05:46:57;4.63;;;4.23;;
30472;SDS011;17263;48.160;11.452;2023-05-07T05:49:24;4.80;;;4.30;;
30472;SDS011;17263;48.160;11.452;2023-05-07T05:51:51;4.57;;;3.93;;
30472;SDS011;17263;48.160;11.452;2023-05-07T05:54:17;4.13;;;3.83;;
30472;SDS011;17263;48.160;11.452;2023-05-07T05:56:43;6.07;;;4.00;;
30472;SDS011;17263;48.160;11.452;2023-05-07T05:59:09;4.50;;;3.73;;
30472;SDS011;17263;48.160;11.452;2023-05-07T06:01:35;4.53;;;3.85;;
30472;SDS011;17263;48.160;11.452;2023-05-07T06:04:01;5.20;;;3.53;;
30472;SDS011;17263;48.160;11.452;2023-05-07T06:06:27;3.42;;;3.13;;
30472;SDS011;17263;48.160;11.452;2023-05-07T06:08:54;4.28;;;3.20;;
30472;SDS011;17263;48.160;11.452;2023-05-07T06:11:20;3.20;;;2.80;;
30472;SDS011;17263;48.160;11.452;2023-05-07T06:13:46;3.15;;;2.80;;
30472;SDS011;17263;48.160;11.452;2023-05-07T06:16:12;4.95;;;3.45;;
30472;SDS011;17263;48.160;11.452;2023-05-07T06:18:38;3.80;;;3.28;;
30472;SDS011;17263;48.160;11.452;2023-05-07T06:21:04;3.40;;;2.92;;
30472;SDS011;17263;48.160;11.452;2023-05-07T06:23:30;3.42;;;2.95;;
30472;SDS011;17263;48.160;11.452;2023-05-07T06:25:56;3.42;;;2.88;;
30472;SDS011;17263;48.160;11.452;2023-05-07T06:28:22;3.85;;;3.33;;
30472;SDS011;17263;48.160;11.452;2023-05-07T06:30:48;3.60;;;3.22;;
30472;SDS011;17263;48.160;11.452;2023-05-07T06:33:15;3.28;;;2.67;;
30472;SDS011;17263;48.160;11.452;2023-05-07T06:35:41;3.60;;;3.30;;
30472;SDS011;17263;48.160;11.452;2023-05-07T06:38:07;4.93;;;3.17;;
30472;SDS011;17263;48.160;11.452;2023-05-07T06:40:33;3.97;;;2.78;;
30472;SDS011;17263;48.160;11.452;2023-05-07T06:42:59;4.75;;;3.10;;
30472;SDS011;17263;48.160;11.452;2023-05-07T06:45:25;3.95;;;2.97;;
30472;SDS011;17263;48.160;11.452;2023-05-07T06:47:51;2.78;;;2.58;;
30472;SDS011;17263;48.160;11.452;2023-05-07T06:50:17;3.85;;;2.67;;
30472;SDS011;17263;48.160;11.452;2023-05-07T06:52:43;3.85;;;2.50;;
30472;SDS011;17263;48.160;11.452;2023-05-07T06:55:09;5.22;;;2.92;;
30472;SDS011;17263;48.160;11.452;2023-05-07T06:57:36;4.78;;;2.90;;
30472;SDS011;17263;48.160;11.452;2023-05-07T07:00:03;3.60;;;2.92;;
30472;SDS011;17263;48.160;11.452;2023-05-07T07:02:32;3.40;;;2.80;;
30472;SDS011;17263;48.160;11.452;2023-05-07T07:04:58;4.68;;;2.70;;
30472;SDS011;17263;48.160;11.452;2023-05-07T07:07:24;3.70;;;2.40;;
30472;SDS011;17263;48.160;11.452;2023-05-07T07:09:50;3.35;;;2.90;;
30472;SDS011;17263;48.160;11.452;2023-05-07T07:12:16;4.20;;;2.60;;
30472;SDS011;17263;48.160;11.452;2023-05-07T07:14:42;2.80;;;2.60;;
30472;SDS011;17263;48.160;11.452;2023-05-07T07:17:08;4.07;;;2.58;;
30472;SDS011;17263;48.160;11.452;2023-05-07T07:19:35;4.38;;;2.45;;
30472;SDS011;17263;48.160;11.452;2023-05-07T07:22:02;2.65;;;2.28;;
30472;SDS011;17263;48.160;11.452;2023-05-07T07:24:28;2.72;;;2.40;;
30472;SDS011;17263;48.160;11.452;2023-05-07T07:26:54;2.65;;;2.40;;
30472;SDS011;17263;48.160;11.452;2023-05-07T07:29:20;3.65;;;2.70;;
30472;SDS011;17263;48.160;11.452;2023-05-07T07:31:47;3.30;;;2.40;;
30472;SDS011;17263;48.160;11.452;2023-05-07T07:34:15;2.53;;;2.10;;
30472;SDS011;17263;48.160;11.452;2023-05-07T07:36:41;2.45;;;2.03;;
30472;SDS011;17263;48.160;11.452;2023-05-07T07:39:07;4.03;;;2.72;;
30472;SDS011;17263;48.160;11.452;2023-05-07T07:41:33;2.60;;;2.40;;
30472;SDS011;17263;48.160;11.452;2023-05-07T07:43:59;4.10;;;3.05;;
30472;SDS011;17263;48.160;11.452;2023-05-07T07:46:25;3.50;;;2.40;;
30472;SDS011;17263;48.160;11.452;2023-05-07T07:48:52;2.88;;;2.60;;
30472;SDS011;17263;48.160;11.452;2023-05-07T07:51:18;2.95;;;2.40;;
30472;SDS011;17263;48.160;11.452;2023-05-07T07:53:44;2.65;;;2.30;;
30472;SDS011;17263;48.160;11.452;2023-05-07T07:56:10;2.53;;;2.20;;
30472;SDS011;17263;48.160;11.452;2023-05-07T07:58:36;2.67;;;2.30;;
30472;SDS011;17263;48.160;11.452;2023-05-07T08:01:03;2.70;;;2.20;;
30472;SDS011;17263;48.160;11.452;2023-05-07T08:03:29;3.15;;;2.28;;
30472;SDS011;17263;48.160;11.452;2023-05-07T08:05:57;3.65;;;2.28;;
30472;SDS011;17263;48.160;11.452;2023-05-07T08:08:23;3.10;;;2.55;;
30472;SDS011;17263;48.160;11.452;2023-05-07T08:10:50;4.88;;;2.55;;
30472;SDS011;17263;48.160;11.452;2023-05-07T08:13:21;2.42;;;2.13;;
30472;SDS011;17263;48.160;11.452;2023-05-07T08:15:49;2.85;;;2.35;;
30472;SDS011;17263;48.160;11.452;2023-05-07T08:18:15;3.28;;;2.42;;
30472;SDS011;17263;48.160;11.452;2023-05-07T08:20:41;3.42;;;2.55;;
30472;SDS011;17263;48.160;11.452;2023-05-07T08:23:07;2.65;;;2.20;;
30472;SDS011;17263;48.160;11.452;2023-05-07T08:25:34;3.40;;;2.60;;
30472;SDS011;17263;48.160;11.452;2023-05-07T08:28:00;5.28;;;2.85;;
30472;SDS011;17263;48.160;11.452;2023-05-07T08:30:27;4.03;;;2.63;;
30472;SDS011;17263;48.160;11.452;2023-05-07T08:32:53;2.90;;;2.70;;
30472;SDS011;17263;48.160;11.452;2023-05-07T08:35:19;3.50;;;2.50;;
30472;SDS011;17263;48.160;11.452;2023-05-07T08:37:45;3.38;;;2.55;;
30472;SDS011;17263;48.160;11.452;2023-05-07T08:40:11;3.35;;;2.95;;
30472;SDS011;17263;48.160;11.452;2023-05-07T08:42:37;2.65;;;2.45;;
30472;SDS011;17263;48.160;11.452;2023-05-07T08:45:10;2.92;;;2.58;;
30472;SDS011;17263;48.160;11.452;2023-05-07T08:47:41;3.13;;;2.50;;
30472;SDS011;17263;48.160;11.452;2023-05-07T08:50:18;2.97;;;2.67;;
30472;SDS011;17263;48.160;11.452;2023-05-07T08:52:46;2.80;;;2.20;;
30472;SDS011;17263;48.160;11.452;2023-05-07T08:55:12;2.75;;;2.10;;
30472;SDS011;17263;48.160;11.452;2023-05-07T08:57:38;4.70;;;2.47;;
30472;SDS011;17263;48.160;11.452;2023-05-07T09:00:05;2.25;;;1.90;;
30472;SDS011;17263;48.160;11.452;2023-05-07T09:02:33;3.10;;;2.10;;
30472;SDS011;17263;48.160;11.452;2023-05-07T09:05:06;3.30;;;2.20;;
30472;SDS011;17263;48.160;11.452;2023-05-07T09:07:32;2.58;;;1.88;;
30472;SDS011;17263;48.160;11.452;2023-05-07T09:10:00;2.25;;;2.05;;
30472;SDS011;17263;48.160;11.452;2023-05-07T09:12:27;2.45;;;2.25;;
30472;SDS011;17263;48.160;11.452;2023-05-07T09:14:53;2.17;;;1.90;;
30472;SDS011;17263;48.160;11.452;2023-05-07T09:17:19;5.15;;;2.35;;
30472;SDS011;17263;48.160;11.452;2023-05-07T09:19:46;2.47;;;2.28;;
30472;SDS011;17263;48.160;11.452;2023-05-07T09:22:12;2.78;;;2.10;;
30472;SDS011;17263;48.160;11.452;2023-05-07T09:24:39;2.78;;;2.10;;
30472;SDS011;17263;48.160;11.452;2023-05-07T09:27:05;2.55;;;2.20;;
30472;SDS011;17263;48.160;11.452;2023-05-07T09:29:32;2.33;;;1.88;;
30472;SDS011;17263;48.160;11.452;2023-05-07T09:32:10;3.67;;;2.47;;
30472;SDS011;17263;48.160;11.452;2023-05-07T09:34:36;2.63;;;2.20;;
30472;SDS011;17263;48.160;11.452;2023-05-07T09:37:03;2.72;;;2.45;;
30472;SDS011;17263;48.160;11.452;2023-05-07T09:39:43;2.22;;;2.03;;
30472;SDS011;17263;48.160;11.452;2023-05-07T09:42:10;3.83;;;2.08;;
30472;SDS011;17263;48.160;11.452;2023-05-07T09:44:37;3.35;;;2.20;;
30472;SDS011;17263;48.160;11.452;2023-05-07T09:47:04;4.35;;;2.10;;
30472;SDS011;17263;48.160;11.452;2023-05-07T09:49:33;3.00;;;2.10;;
30472;SDS011;17263;48.160;11.452;2023-05-07T09:52:02;3.28;;;2.00;;
30472;SDS011;17263;48.160;11.452;2023-05-07T09:54:32;2.05;;;1.73;;
30472;SDS011;17263;48.160;11.452;2023-05-07T09:56:59;2.25;;;2.03;;
30472;SDS011;17263;48.160;11.452;2023-05-07T09:59:27;2.53;;;1.67;;
30472;SDS011;17263;48.160;11.452;2023-05-07T10:01:56;1.80;;;1.48;;
30472;SDS011;17263;48.160;11.452;2023-05-07T10:04:24;2.63;;;1.77;;
30472;SDS011;17263;48.160;11.452;2023-05-07T10:06:51;2.60;;;1.77;;
30472;SDS011;17263;48.160;11.452;2023-05-07T10:09:19;2.45;;;1.90;;
30472;SDS011;17263;48.160;11.452;2023-05-07T10:11:46;3.67;;;2.10;;
30472;SDS011;17263;48.160;11.452;2023-05-07T10:14:14;2.53;;;1.98;;
30472;SDS011;17263;48.160;11.452;2023-05-07T10:16:40;2.80;;;2.10;;
30472;SDS011;17263;48.160;11.452;2023-05-07T10:19:07;3.25;;;1.70;;
30472;SDS011;17263;48.160;11.452;2023-05-07T10:21:37;2.00;;;1.80;;
30472;SDS011;17263;48.160;11.452;2023-05-07T10:26:43;1.90;;;1.80;;
30472;SDS011;17263;48.160;11.452;2023-05-07T10:29:18;2.65;;;2.05;;
30472;SDS011;17263;48.160;11.452;2023-05-07T10:31:58;2.20;;;2.00;;
30472;SDS011;17263;48.160;11.452;2023-05-07T10:34:44;2.85;;;2.00;;
30472;SDS011;17263;48.160;11.452;2023-05-07T10:37:14;4.38;;;2.10;;
30472;SDS011;17263;48.160;11.452;2023-05-07T10:39:40;2.17;;;1.70;;
30472;SDS011;17263;48.160;11.452;2023-05-07T10:42:07;3.40;;;1.70;;
30472;SDS011;17263;48.160;11.452;2023-05-07T10:44:34;2.42;;;1.90;;
30472;SDS011;17263;48.160;11.452;2023-05-07T10:47:12;2.88;;;1.80;;
30472;SDS011;17263;48.160;11.452;2023-05-07T10:52:12;2.13;;;1.77;;
30472;SDS011;17263;48.160;11.452;2023-05-07T10:54:42;2.85;;;2.10;;
30472;SDS011;17263;48.160;11.452;2023-05-07T10:59:54;1.83;;;1.65;;
30472;SDS011;17263;48.160;11.452;2023-05-07T11:02:20;2.88;;;1.70;;
30472;SDS011;17263;48.160;11.452;2023-05-07T11:04:57;2.17;;;1.90;;
30472;SDS011;17263;48.160;11.452;2023-05-07T11:07:59;2.83;;;2.25;;
30472;SDS011;17263;48.160;11.452;2023-05-07T11:16:23;2.40;;;2.10;;
30472;SDS011;17263;48.160;11.452;2023-05-07T11:18:53;2.38;;;1.83;;
30472;SDS011;17263;48.160;11.452;2023-05-07T11:21:33;3.23;;;2.00;;
30472;SDS011;17263;48.160;11.452;2023-05-07T11:24:00;3.23;;;1.80;;
30472;SDS011;17263;48.160;11.452;2023-05-07T11:26:28;2.45;;;2.22;;
30472;SDS011;17263;48.160;11.452;2023-05-07T11:29:14;2.37;;;1.97;;
30472;SDS011;17263;48.160;11.452;2023-05-07T11:31:42;3.53;;;2.70;;
30472;SDS011;17263;48.160;11.452;2023-05-07T11:34:08;3.07;;;2.30;;
30472;SDS011;17263;48.160;11.452;2023-05-07T11:36:36;3.05;;;2.17;;
30472;SDS011;17263;48.160;11.452;2023-05-07T11:41:51;2.90;;;2.60;;
30472;SDS011;17263;48.160;11.452;2023-05-07T11:44:17;3.33;;;2.73;;
30472;SDS011;17263;48.160;11.452;2023-05-07T11:46:43;3.60;;;2.50;;
30472;SDS011;17263;48.160;11.452;2023-05-07T11:49:10;2.83;;;2.47;;
30472;SDS011;17263;48.160;11.452;2023-05-07T11:51:36;4.53;;;2.53;;
30472;SDS011;17263;48.160;11.452;2023-05-07T11:54:05;7.23;;;3.37;;
30472;SDS011;17263;48.160;11.452;2023-05-07T11:56:36;3.20;;;2.90;;
30472;SDS011;17263;48.160;11.452;2023-05-07T11:59:03;3.30;;;2.73;;
30472;SDS011;17263;48.160;11.452;2023-05-07T12:01:29;4.63;;;3.83;;
30472;SDS011;17263;48.160;11.452;2023-05-07T12:03:56;6.40;;;3.30;;
30472;SDS011;17263;48.160;11.452;2023-05-07T12:06:22;4.07;;;2.80;;
30472;SDS011;17263;48.160;11.452;2023-05-07T12:08:48;3.50;;;2.80;;
30472;SDS011;17263;48.160;11.452;2023-05-07T12:11:23;2.57;;;2.27;;
30472;SDS011;17263;48.160;11.452;2023-05-07T12:13:50;2.60;;;2.28;;
30472;SDS011;17263;48.160;11.452;2023-05-07T12:16:17;2.53;;;2.33;;
30472;SDS011;17263;48.160;11.452;2023-05-07T12:18:43;5.00;;;2.60;;
30472;SDS011;17263;48.160;11.452;2023-05-07T12:21:10;2.50;;;2.30;;
30472;SDS011;17263;48.160;11.452;2023-05-07T12:23:37;2.73;;;2.33;;
30472;SDS011;17263;48.160;11.452;2023-05-07T12:26:03;2.70;;;2.30;;
30472;SDS011;17263;48.160;11.452;2023-05-07T12:28:31;2.77;;;2.27;;
30472;SDS011;17263;48.160;11.452;2023-05-07T12:31:01;2.73;;;2.10;;
30472;SDS011;17263;48.160;11.452;2023-05-07T12:33:28;2.57;;;2.10;;
30472;SDS011;17263;48.160;11.452;2023-05-07T12:35:54;2.30;;;2.03;;
30472;SDS011;17263;48.160;11.452;2023-05-07T12:38:21;3.03;;;2.07;;
30472;SDS011;17263;48.160;11.452;2023-05-07T12:40:49;2.33;;;2.13;;
30472;SDS011;17263;48.160;11.452;2023-05-07T12:43:19;3.08;;;2.25;;
30472;SDS011;17263;48.160;11.452;2023-05-07T12:45:55;2.45;;;2.08;;
30472;SDS011;17263;48.160;11.452;2023-05-07T12:48:23;2.87;;;2.50;;
30472;SDS011;17263;48.160;11.452;2023-05-07T12:51:01;2.37;;;2.17;;
30472;SDS011;17263;48.160;11.452;2023-05-07T12:53:28;3.07;;;2.00;;
30472;SDS011;17263;48.160;11.452;2023-05-07T12:55:55;2.77;;;2.10;;
30472;SDS011;17263;48.160;11.452;2023-05-07T12:58:29;2.67;;;2.10;;
30472;SDS011;17263;48.160;11.452;2023-05-07T13:00:59;3.73;;;2.20;;
30472;SDS011;17263;48.160;11.452;2023-05-07T13:06:01;5.80;;;2.27;;
30472;SDS011;17263;48.160;11.452;2023-05-07T13:08:39;1.90;;;1.70;;
30472;SDS011;17263;48.160;11.452;2023-05-07T13:11:09;1.97;;;1.63;;
30472;SDS011;17263;48.160;11.452;2023-05-07T13:13:36;3.43;;;1.80;;
30472;SDS011;17263;48.160;11.452;2023-05-07T13:16:04;1.87;;;1.73;;
30472;SDS011;17263;48.160;11.452;2023-05-07T13:18:32;2.07;;;1.87;;
30472;SDS011;17263;48.160;11.452;2023-05-07T13:20:59;1.73;;;1.63;;
30472;SDS011;17263;48.160;11.452;2023-05-07T13:23:26;2.67;;;1.57;;
30472;SDS011;17263;48.160;11.452;2023-05-07T13:25:52;2.30;;;1.90;;
30472;SDS011;17263;48.160;11.452;2023-05-07T13:28:22;1.83;;;1.70;;
30472;SDS011;17263;48.160;11.452;2023-05-07T13:30:49;2.93;;;1.80;;
30472;SDS011;17263;48.160;11.452;2023-05-07T13:33:17;2.60;;;1.80;;
30472;SDS011;17263;48.160;11.452;2023-05-07T13:35:43;3.67;;;1.80;;
30472;SDS011;17263;48.160;11.452;2023-05-07T13:38:10;2.63;;;1.80;;
30472;SDS011;17263;48.160;11.452;2023-05-07T13:40:36;1.95;;;1.70;;
30472;SDS011;17263;48.160;11.452;2023-05-07T13:43:02;3.20;;;1.70;;
30472;SDS011;17263;48.160;11.452;2023-05-07T13:45:28;2.10;;;1.67;;
30472;SDS011;17263;48.160;11.452;2023-05-07T13:47:55;3.65;;;2.03;;
30472;SDS011;17263;48.160;11.452;2023-05-07T13:50:22;2.00;;;1.77;;
30472;SDS011;17263;48.160;11.452;2023-05-07T13:52:48;2.50;;;2.20;;
30472;SDS011;17263;48.160;11.452;2023-05-07T13:55:20;2.27;;;2.07;;
30472;SDS011;17263;48.160;11.452;2023-05-07T13:57:53;3.43;;;2.20;;
30472;SDS011;17263;48.160;11.452;2023-05-07T14:00:21;2.70;;;2.27;;
30472;SDS011;17263;48.160;11.452;2023-05-07T14:02:48;3.63;;;2.10;;
30472;SDS011;17263;48.160;11.452;2023-05-07T14:05:14;2.43;;;2.00;;
30472;SDS011;17263;48.160;11.452;2023-05-07T14:07:40;2.40;;;2.20;;
30472;SDS011;17263;48.160;11.452;2023-05-07T14:10:07;2.23;;;1.90;;
30472;SDS011;17263;48.160;11.452;2023-05-07T14:12:34;3.23;;;2.20;;
30472;SDS011;17263;48.160;11.452;2023-05-07T14:15:00;4.03;;;2.50;;
30472;SDS011;17263;48.160;11.452;2023-05-07T14:17:26;3.03;;;2.63;;
30472;SDS011;17263;48.160;11.452;2023-05-07T14:19:52;2.50;;;2.30;;
30472;SDS011;17263;48.160;11.452;2023-05-07T14:22:22;3.30;;;2.20;;
30472;SDS011;17263;48.160;11.452;2023-05-07T14:24:48;2.20;;;2.00;;
30472;SDS011;17263;48.160;11.452;2023-05-07T14:27:15;3.00;;;2.70;;
30472;SDS011;17263;48.160;11.452;2023-05-07T14:29:41;3.00;;;2.70;;
30472;SDS011;17263;48.160;11.452;2023-05-07T14:32:08;3.30;;;2.63;;
30472;SDS011;17263;48.160;11.452;2023-05-07T14:34:34;2.73;;;2.50;;
30472;SDS011;17263;48.160;11.452;2023-05-07T14:37:00;4.13;;;2.70;;
30472;SDS011;17263;48.160;11.452;2023-05-07T14:39:27;4.13;;;3.47;;
30472;SDS011;17263;48.160;11.452;2023-05-07T14:41:53;5.83;;;2.70;;
30472;SDS011;17263;48.160;11.452;2023-05-07T14:44:20;2.50;;;2.30;;
30472;SDS011;17263;48.160;11.452;2023-05-07T14:46:46;2.97;;;2.60;;
30472;SDS011;17263;48.160;11.452;2023-05-07T14:49:13;3.43;;;2.50;;
30472;SDS011;17263;48.160;11.452;2023-05-07T14:51:45;3.00;;;2.70;;